sensor_id;sensor_type;location;lat;lon;timestamp;P1;durP1;ratioP1;P2;durP2;ratioP2
38224;SDS011;24025;48.138;11.428;2022-08-25T00:00:21;2.40;;;2.20;;
38224;SDS011;24025;48.138;11.428;2022-08-25T00:02:53;5.38;;;2.75;;
38224;SDS011;24025;48.138;11.428;2022-08-25T00:05:27;4.28;;;2.50;;
38224;SDS011;24025;48.138;11.428;2022-08-25T00:07:59;6.05;;;3.00;;
38224;SDS011;24025;48.138;11.428;2022-08-25T00:10:30;3.05;;;2.63;;
38224;SDS011;24025;48.138;11.428;2022-08-25T00:13:03;4.25;;;2.97;;
38224;SDS011;24025;48.138;11.428;2022-08-25T00:15:35;6.93;;;3.67;;
38224;SDS011;24025;48.138;11.428;2022-08-25T00:18:05;3.55;;;3.17;;
38224;SDS011;24025;48.138;11.428;2022-08-25T00:20:36;4.18;;;3.08;;
38224;SDS011;24025;48.138;11.428;2022-08-25T00:23:06;5.05;;;3.40;;
38224;SDS011;24025;48.138;11.428;2022-08-25T00:25:36;7.13;;;3.67;;
38224;SDS011;24025;48.138;11.428;2022-08-25T00:28:07;4.90;;;3.17;;
38224;SDS011;24025;48.138;11.428;2022-08-25T00:30:39;6.45;;;3.30;;
38224;SDS011;24025;48.138;11.428;2022-08-25T00:33:10;6.50;;;3.70;;
38224;SDS011;24025;48.138;11.428;2022-08-25T00:35:40;5.63;;;3.55;;
38224;SDS011;24025;48.138;11.428;2022-08-25T00:38:12;5.95;;;3.50;;
38224;SDS011;24025;48.138;11.428;2022-08-25T00:40:43;6.80;;;3.83;;
38224;SDS011;24025;48.138;11.428;2022-08-25T00:43:15;9.90;;;3.58;;
38224;SDS011;24025;48.138;11.428;2022-08-25T00:45:46;5.07;;;3.67;;
38224;SDS011;24025;48.138;11.428;2022-08-25T00:48:17;5.40;;;3.45;;
38224;SDS011;24025;48.138;11.428;2022-08-25T00:50:47;5.25;;;3.55;;
38224;SDS011;24025;48.138;11.428;2022-08-25T00:53:18;4.47;;;3.78;;
38224;SDS011;24025;48.138;11.428;2022-08-25T00:55:48;4.20;;;3.75;;
38224;SDS011;24025;48.138;11.428;2022-08-25T00:58:20;4.38;;;3.38;;
38224;SDS011;24025;48.138;11.428;2022-08-25T01:00:54;6.65;;;3.80;;
38224;SDS011;24025;48.138;11.428;2022-08-25T01:05:59;6.00;;;3.90;;
38224;SDS011;24025;48.138;11.428;2022-08-25T01:08:32;7.47;;;3.60;;
38224;SDS011;24025;48.138;11.428;2022-08-25T01:11:04;6.20;;;3.58;;
38224;SDS011;24025;48.138;11.428;2022-08-25T01:13:38;5.22;;;4.13;;
38224;SDS011;24025;48.138;11.428;2022-08-25T01:16:13;4.82;;;3.50;;
38224;SDS011;24025;48.138;11.428;2022-08-25T01:18:49;4.57;;;3.72;;
38224;SDS011;24025;48.138;11.428;2022-08-25T01:21:23;5.75;;;4.35;;
38224;SDS011;24025;48.138;11.428;2022-08-25T01:23:55;8.25;;;3.83;;
38224;SDS011;24025;48.138;11.428;2022-08-25T01:26:30;7.25;;;3.75;;
38224;SDS011;24025;48.138;11.428;2022-08-25T01:29:03;4.22;;;3.78;;
38224;SDS011;24025;48.138;11.428;2022-08-25T01:31:53;5.70;;;3.88;;
38224;SDS011;24025;48.138;11.428;2022-08-25T01:34:27;5.32;;;3.83;;
38224;SDS011;24025;48.138;11.428;2022-08-25T01:37:00;5.32;;;4.10;;
38224;SDS011;24025;48.138;11.428;2022-08-25T01:39:31;4.97;;;4.00;;
38224;SDS011;24025;48.138;11.428;2022-08-25T01:44:40;7.68;;;4.80;;
38224;SDS011;24025;48.138;11.428;2022-08-25T01:47:12;6.78;;;4.13;;
38224;SDS011;24025;48.138;11.428;2022-08-25T01:49:44;6.30;;;4.65;;
38224;SDS011;24025;48.138;11.428;2022-08-25T01:52:27;4.25;;;3.75;;
38224;SDS011;24025;48.138;11.428;2022-08-25T01:55:01;4.97;;;3.90;;
38224;SDS011;24025;48.138;11.428;2022-08-25T01:57:31;4.30;;;3.67;;
38224;SDS011;24025;48.138;11.428;2022-08-25T02:00:04;6.47;;;3.95;;
38224;SDS011;24025;48.138;11.428;2022-08-25T02:02:36;6.65;;;4.07;;
38224;SDS011;24025;48.138;11.428;2022-08-25T02:05:07;5.43;;;3.53;;
38224;SDS011;24025;48.138;11.428;2022-08-25T02:07:39;6.75;;;3.60;;
38224;SDS011;24025;48.138;11.428;2022-08-25T02:10:11;4.32;;;3.33;;
38224;SDS011;24025;48.138;11.428;2022-08-25T02:12:42;6.03;;;3.50;;
38224;SDS011;24025;48.138;11.428;2022-08-25T02:15:13;9.32;;;4.20;;
38224;SDS011;24025;48.138;11.428;2022-08-25T02:17:43;4.45;;;3.58;;
38224;SDS011;24025;48.138;11.428;2022-08-25T02:20:13;4.80;;;3.80;;
38224;SDS011;24025;48.138;11.428;2022-08-25T02:22:44;7.25;;;4.40;;
38224;SDS011;24025;48.138;11.428;2022-08-25T02:25:14;4.63;;;3.70;;
38224;SDS011;24025;48.138;11.428;2022-08-25T02:27:46;7.97;;;3.60;;
38224;SDS011;24025;48.138;11.428;2022-08-25T02:30:16;5.78;;;3.90;;
38224;SDS011;24025;48.138;11.428;2022-08-25T02:32:47;6.53;;;4.43;;
38224;SDS011;24025;48.138;11.428;2022-08-25T02:35:17;6.75;;;4.88;;
38224;SDS011;24025;48.138;11.428;2022-08-25T02:37:49;6.32;;;4.78;;
38224;SDS011;24025;48.138;11.428;2022-08-25T02:40:20;7.18;;;4.70;;
38224;SDS011;24025;48.138;11.428;2022-08-25T02:42:51;7.30;;;5.30;;
38224;SDS011;24025;48.138;11.428;2022-08-25T02:45:22;6.97;;;5.03;;
38224;SDS011;24025;48.138;11.428;2022-08-25T02:47:52;6.82;;;4.60;;
38224;SDS011;24025;48.138;11.428;2022-08-25T02:50:23;6.05;;;4.43;;
38224;SDS011;24025;48.138;11.428;2022-08-25T02:52:55;6.38;;;4.57;;
38224;SDS011;24025;48.138;11.428;2022-08-25T02:55:26;11.05;;;4.75;;
38224;SDS011;24025;48.138;11.428;2022-08-25T02:57:56;5.43;;;4.07;;
38224;SDS011;24025;48.138;11.428;2022-08-25T03:00:27;4.60;;;4.10;;
38224;SDS011;24025;48.138;11.428;2022-08-25T03:02:57;7.22;;;4.25;;
38224;SDS011;24025;48.138;11.428;2022-08-25T03:05:28;5.72;;;3.38;;
38224;SDS011;24025;48.138;11.428;2022-08-25T03:07:58;7.25;;;4.72;;
38224;SDS011;24025;48.138;11.428;2022-08-25T03:10:29;6.18;;;4.60;;
38224;SDS011;24025;48.138;11.428;2022-08-25T03:13:00;4.57;;;4.05;;
38224;SDS011;24025;48.138;11.428;2022-08-25T03:15:30;5.82;;;4.05;;
38224;SDS011;24025;48.138;11.428;2022-08-25T03:18:01;5.10;;;3.92;;
38224;SDS011;24025;48.138;11.428;2022-08-25T03:20:32;4.47;;;3.75;;
38224;SDS011;24025;48.138;11.428;2022-08-25T03:25:35;4.80;;;4.07;;
38224;SDS011;24025;48.138;11.428;2022-08-25T03:28:27;5.70;;;4.05;;
38224;SDS011;24025;48.138;11.428;2022-08-25T03:31:01;4.18;;;3.65;;
38224;SDS011;24025;48.138;11.428;2022-08-25T03:33:32;6.95;;;3.95;;
38224;SDS011;24025;48.138;11.428;2022-08-25T03:36:03;4.80;;;3.92;;
38224;SDS011;24025;48.138;11.428;2022-08-25T03:38:34;6.80;;;3.35;;
38224;SDS011;24025;48.138;11.428;2022-08-25T03:41:14;3.83;;;3.40;;
38224;SDS011;24025;48.138;11.428;2022-08-25T03:43:46;3.72;;;3.40;;
38224;SDS011;24025;48.138;11.428;2022-08-25T03:46:51;8.38;;;3.53;;
38224;SDS011;24025;48.138;11.428;2022-08-25T03:49:17;4.15;;;3.42;;
38224;SDS011;24025;48.138;11.428;2022-08-25T03:51:50;4.85;;;3.67;;
38224;SDS011;24025;48.138;11.428;2022-08-25T03:56:54;6.47;;;3.47;;
38224;SDS011;24025;48.138;11.428;2022-08-25T03:59:24;4.35;;;3.33;;
38224;SDS011;24025;48.138;11.428;2022-08-25T04:01:56;4.22;;;3.17;;
38224;SDS011;24025;48.138;11.428;2022-08-25T04:04:26;5.38;;;3.35;;
38224;SDS011;24025;48.138;11.428;2022-08-25T04:06:57;4.88;;;3.58;;
38224;SDS011;24025;48.138;11.428;2022-08-25T04:09:28;4.72;;;3.83;;
38224;SDS011;24025;48.138;11.428;2022-08-25T04:11:58;5.90;;;3.97;;
38224;SDS011;24025;48.138;11.428;2022-08-25T04:14:29;4.13;;;3.75;;
38224;SDS011;24025;48.138;11.428;2022-08-25T04:17:00;4.45;;;3.10;;
38224;SDS011;24025;48.138;11.428;2022-08-25T04:19:30;5.22;;;3.45;;
38224;SDS011;24025;48.138;11.428;2022-08-25T04:22:01;4.82;;;3.15;;
38224;SDS011;24025;48.138;11.428;2022-08-25T04:24:31;6.00;;;3.47;;
38224;SDS011;24025;48.138;11.428;2022-08-25T04:27:02;6.63;;;3.25;;
38224;SDS011;24025;48.138;11.428;2022-08-25T04:29:32;3.45;;;3.03;;
38224;SDS011;24025;48.138;11.428;2022-08-25T04:32:03;3.88;;;3.00;;
38224;SDS011;24025;48.138;11.428;2022-08-25T04:34:33;4.93;;;3.08;;
38224;SDS011;24025;48.138;11.428;2022-08-25T04:37:04;3.63;;;3.08;;
38224;SDS011;24025;48.138;11.428;2022-08-25T04:39:36;4.63;;;3.00;;
38224;SDS011;24025;48.138;11.428;2022-08-25T04:42:07;7.03;;;3.22;;
38224;SDS011;24025;48.138;11.428;2022-08-25T04:44:37;11.57;;;3.50;;
38224;SDS011;24025;48.138;11.428;2022-08-25T04:47:08;3.22;;;2.78;;
38224;SDS011;24025;48.138;11.428;2022-08-25T04:49:40;4.28;;;3.30;;
38224;SDS011;24025;48.138;11.428;2022-08-25T04:52:10;5.70;;;2.90;;
38224;SDS011;24025;48.138;11.428;2022-08-25T04:54:41;7.50;;;2.78;;
38224;SDS011;24025;48.138;11.428;2022-08-25T04:57:12;6.53;;;4.38;;
38224;SDS011;24025;48.138;11.428;2022-08-25T04:59:43;4.32;;;2.80;;
38224;SDS011;24025;48.138;11.428;2022-08-25T05:02:13;2.72;;;2.17;;
38224;SDS011;24025;48.138;11.428;2022-08-25T05:04:44;2.63;;;2.40;;
38224;SDS011;24025;48.138;11.428;2022-08-25T05:07:14;3.85;;;2.97;;
38224;SDS011;24025;48.138;11.428;2022-08-25T05:09:45;3.72;;;2.65;;
38224;SDS011;24025;48.138;11.428;2022-08-25T05:12:15;6.40;;;2.60;;
38224;SDS011;24025;48.138;11.428;2022-08-25T05:14:46;5.43;;;3.35;;
38224;SDS011;24025;48.138;11.428;2022-08-25T05:17:17;3.40;;;2.70;;
38224;SDS011;24025;48.138;11.428;2022-08-25T05:19:48;5.20;;;3.00;;
38224;SDS011;24025;48.138;11.428;2022-08-25T05:22:18;5.97;;;3.45;;
38224;SDS011;24025;48.138;11.428;2022-08-25T05:24:49;7.28;;;3.00;;
38224;SDS011;24025;48.138;11.428;2022-08-25T05:27:20;6.47;;;3.30;;
38224;SDS011;24025;48.138;11.428;2022-08-25T05:29:51;4.72;;;3.03;;
38224;SDS011;24025;48.138;11.428;2022-08-25T05:32:21;3.83;;;3.47;;
38224;SDS011;24025;48.138;11.428;2022-08-25T05:34:52;4.25;;;3.60;;
38224;SDS011;24025;48.138;11.428;2022-08-25T05:37:22;5.05;;;3.17;;
38224;SDS011;24025;48.138;11.428;2022-08-25T05:39:52;6.93;;;3.65;;
38224;SDS011;24025;48.138;11.428;2022-08-25T05:42:23;4.80;;;3.90;;
38224;SDS011;24025;48.138;11.428;2022-08-25T05:44:54;7.22;;;4.13;;
38224;SDS011;24025;48.138;11.428;2022-08-25T05:47:24;6.93;;;4.03;;
38224;SDS011;24025;48.138;11.428;2022-08-25T05:49:55;6.10;;;4.15;;
38224;SDS011;24025;48.138;11.428;2022-08-25T05:52:26;5.65;;;4.22;;
38224;SDS011;24025;48.138;11.428;2022-08-25T05:54:57;6.70;;;6.00;;
38224;SDS011;24025;48.138;11.428;2022-08-25T05:57:28;8.93;;;5.53;;
38224;SDS011;24025;48.138;11.428;2022-08-25T05:59:58;9.30;;;5.85;;
38224;SDS011;24025;48.138;11.428;2022-08-25T06:02:29;9.32;;;5.63;;
38224;SDS011;24025;48.138;11.428;2022-08-25T06:05:16;7.90;;;5.93;;
38224;SDS011;24025;48.138;11.428;2022-08-25T06:07:49;10.82;;;6.63;;
38224;SDS011;24025;48.138;11.428;2022-08-25T06:10:21;12.48;;;6.90;;
38224;SDS011;24025;48.138;11.428;2022-08-25T06:12:51;8.27;;;6.45;;
38224;SDS011;24025;48.138;11.428;2022-08-25T06:15:22;9.95;;;7.50;;
38224;SDS011;24025;48.138;11.428;2022-08-25T06:17:53;12.50;;;7.57;;
38224;SDS011;24025;48.138;11.428;2022-08-25T06:20:27;14.82;;;7.25;;
38224;SDS011;24025;48.138;11.428;2022-08-25T06:22:59;20.42;;;7.18;;
38224;SDS011;24025;48.138;11.428;2022-08-25T06:25:29;13.32;;;6.95;;
38224;SDS011;24025;48.138;11.428;2022-08-25T06:28:02;11.18;;;7.57;;
38224;SDS011;24025;48.138;11.428;2022-08-25T06:30:33;10.77;;;7.97;;
38224;SDS011;24025;48.138;11.428;2022-08-25T06:33:03;12.65;;;7.82;;
38224;SDS011;24025;48.138;11.428;2022-08-25T06:35:33;9.30;;;6.90;;
38224;SDS011;24025;48.138;11.428;2022-08-25T06:38:04;11.18;;;7.28;;
38224;SDS011;24025;48.138;11.428;2022-08-25T06:40:34;11.82;;;7.50;;
38224;SDS011;24025;48.138;11.428;2022-08-25T06:43:05;11.80;;;7.55;;
38224;SDS011;24025;48.138;11.428;2022-08-25T06:45:37;10.02;;;6.82;;
38224;SDS011;24025;48.138;11.428;2022-08-25T06:48:08;14.35;;;8.02;;
38224;SDS011;24025;48.138;11.428;2022-08-25T06:50:39;9.35;;;6.75;;
38224;SDS011;24025;48.138;11.428;2022-08-25T06:53:10;9.85;;;7.25;;
38224;SDS011;24025;48.138;11.428;2022-08-25T06:55:41;13.20;;;7.65;;
38224;SDS011;24025;48.138;11.428;2022-08-25T06:58:11;11.82;;;7.35;;
38224;SDS011;24025;48.138;11.428;2022-08-25T07:00:42;10.07;;;7.35;;
38224;SDS011;24025;48.138;11.428;2022-08-25T07:03:13;12.38;;;6.00;;
38224;SDS011;24025;48.138;11.428;2022-08-25T07:05:53;8.52;;;5.70;;
38224;SDS011;24025;48.138;11.428;2022-08-25T07:08:25;9.45;;;6.68;;
38224;SDS011;24025;48.138;11.428;2022-08-25T07:10:56;10.00;;;5.35;;
38224;SDS011;24025;48.138;11.428;2022-08-25T07:13:27;7.60;;;5.72;;
38224;SDS011;24025;48.138;11.428;2022-08-25T07:16:00;8.13;;;5.38;;
38224;SDS011;24025;48.138;11.428;2022-08-25T07:18:31;8.93;;;5.45;;
38224;SDS011;24025;48.138;11.428;2022-08-25T07:21:03;5.18;;;4.40;;
38224;SDS011;24025;48.138;11.428;2022-08-25T07:23:33;8.48;;;5.05;;
38224;SDS011;24025;48.138;11.428;2022-08-25T07:26:11;6.13;;;4.75;;
38224;SDS011;24025;48.138;11.428;2022-08-25T07:28:46;4.95;;;4.13;;
38224;SDS011;24025;48.138;11.428;2022-08-25T07:31:17;9.73;;;4.35;;
38224;SDS011;24025;48.138;11.428;2022-08-25T07:33:48;5.78;;;3.80;;
38224;SDS011;24025;48.138;11.428;2022-08-25T07:36:37;5.78;;;4.97;;
38224;SDS011;24025;48.138;11.428;2022-08-25T07:39:07;8.48;;;4.65;;
38224;SDS011;24025;48.138;11.428;2022-08-25T07:41:38;5.90;;;4.85;;
38224;SDS011;24025;48.138;11.428;2022-08-25T07:44:10;8.82;;;4.65;;
38224;SDS011;24025;48.138;11.428;2022-08-25T07:46:41;7.55;;;4.38;;
38224;SDS011;24025;48.138;11.428;2022-08-25T07:49:12;6.75;;;4.45;;
38224;SDS011;24025;48.138;11.428;2022-08-25T07:51:43;5.10;;;4.13;;
38224;SDS011;24025;48.138;11.428;2022-08-25T07:54:14;8.55;;;5.80;;
38224;SDS011;24025;48.138;11.428;2022-08-25T07:56:45;9.23;;;4.65;;
38224;SDS011;24025;48.138;11.428;2022-08-25T07:59:16;13.52;;;4.07;;
38224;SDS011;24025;48.138;11.428;2022-08-25T08:01:46;6.90;;;5.88;;
38224;SDS011;24025;48.138;11.428;2022-08-25T08:04:16;7.35;;;5.45;;
38224;SDS011;24025;48.138;11.428;2022-08-25T08:06:47;7.60;;;5.30;;
38224;SDS011;24025;48.138;11.428;2022-08-25T08:09:17;11.60;;;6.40;;
38224;SDS011;24025;48.138;11.428;2022-08-25T08:11:47;7.28;;;5.47;;
38224;SDS011;24025;48.138;11.428;2022-08-25T08:14:18;8.38;;;5.28;;
38224;SDS011;24025;48.138;11.428;2022-08-25T08:16:49;9.15;;;4.80;;
38224;SDS011;24025;48.138;11.428;2022-08-25T08:19:19;5.93;;;4.57;;
38224;SDS011;24025;48.138;11.428;2022-08-25T08:21:51;5.72;;;5.07;;
38224;SDS011;24025;48.138;11.428;2022-08-25T08:24:21;10.65;;;4.78;;
38224;SDS011;24025;48.138;11.428;2022-08-25T08:26:52;13.07;;;4.57;;
38224;SDS011;24025;48.138;11.428;2022-08-25T08:29:22;6.25;;;4.15;;
38224;SDS011;24025;48.138;11.428;2022-08-25T08:31:52;5.65;;;4.38;;
38224;SDS011;24025;48.138;11.428;2022-08-25T08:34:23;5.68;;;3.95;;
38224;SDS011;24025;48.138;11.428;2022-08-25T08:36:53;4.78;;;4.22;;
38224;SDS011;24025;48.138;11.428;2022-08-25T08:39:24;6.72;;;4.55;;
38224;SDS011;24025;48.138;11.428;2022-08-25T08:42:06;7.75;;;5.43;;
38224;SDS011;24025;48.138;11.428;2022-08-25T08:56:00;11.30;;;4.30;;
38224;SDS011;24025;48.138;11.428;2022-08-25T09:01:16;6.28;;;5.68;;
38224;SDS011;24025;48.138;11.428;2022-08-25T09:06:48;7.97;;;4.57;;
38224;SDS011;24025;48.138;11.428;2022-08-25T09:09:29;4.72;;;4.18;;
38224;SDS011;24025;48.138;11.428;2022-08-25T09:17:37;9.98;;;4.25;;
38224;SDS011;24025;48.138;11.428;2022-08-25T09:23:26;5.65;;;3.40;;
38224;SDS011;24025;48.138;11.428;2022-08-25T09:28:47;6.15;;;4.25;;
38224;SDS011;24025;48.138;11.428;2022-08-25T09:31:23;12.95;;;4.75;;
38224;SDS011;24025;48.138;11.428;2022-08-25T09:33:56;5.25;;;4.15;;
38224;SDS011;24025;48.138;11.428;2022-08-25T09:36:30;9.98;;;4.30;;
38224;SDS011;24025;48.138;11.428;2022-08-25T09:39:01;5.63;;;4.07;;
38224;SDS011;24025;48.138;11.428;2022-08-25T09:44:40;8.27;;;3.25;;
38224;SDS011;24025;48.138;11.428;2022-08-25T09:47:23;7.07;;;3.45;;
38224;SDS011;24025;48.138;11.428;2022-08-25T10:00:20;7.70;;;3.70;;
38224;SDS011;24025;48.138;11.428;2022-08-25T10:08:38;6.65;;;4.07;;
38224;SDS011;24025;48.138;11.428;2022-08-25T10:11:10;4.82;;;4.05;;
38224;SDS011;24025;48.138;11.428;2022-08-25T10:14:32;4.25;;;3.42;;
38224;SDS011;24025;48.138;11.428;2022-08-25T10:19:44;8.95;;;3.78;;
38224;SDS011;24025;48.138;11.428;2022-08-25T10:22:25;11.40;;;3.63;;
38224;SDS011;24025;48.138;11.428;2022-08-25T10:25:00;8.77;;;4.22;;
38224;SDS011;24025;48.138;11.428;2022-08-25T10:30:29;5.07;;;3.78;;
38224;SDS011;24025;48.138;11.428;2022-08-25T10:33:37;6.03;;;3.50;;
38224;SDS011;24025;48.138;11.428;2022-08-25T10:36:17;4.20;;;3.80;;
38224;SDS011;24025;48.138;11.428;2022-08-25T10:56:12;5.18;;;3.63;;
38224;SDS011;24025;48.138;11.428;2022-08-25T11:07:14;4.30;;;3.72;;
38224;SDS011;24025;48.138;11.428;2022-08-25T11:09:49;9.65;;;4.03;;
38224;SDS011;24025;48.138;11.428;2022-08-25T11:12:26;3.67;;;3.22;;
38224;SDS011;24025;48.138;11.428;2022-08-25T11:20:31;7.35;;;3.53;;
38224;SDS011;24025;48.138;11.428;2022-08-25T11:23:15;7.30;;;3.72;;
38224;SDS011;24025;48.138;11.428;2022-08-25T11:26:09;7.28;;;3.55;;
38224;SDS011;24025;48.138;11.428;2022-08-25T11:28:51;5.28;;;3.40;;
38224;SDS011;24025;48.138;11.428;2022-08-25T11:31:26;5.85;;;3.03;;
38224;SDS011;24025;48.138;11.428;2022-08-25T11:33:57;6.30;;;4.00;;
38224;SDS011;24025;48.138;11.428;2022-08-25T11:36:35;8.00;;;3.67;;
38224;SDS011;24025;48.138;11.428;2022-08-25T11:39:20;4.38;;;3.22;;
38224;SDS011;24025;48.138;11.428;2022-08-25T11:47:09;5.53;;;3.07;;
38224;SDS011;24025;48.138;11.428;2022-08-25T11:55:19;4.93;;;2.75;;
38224;SDS011;24025;48.138;11.428;2022-08-25T11:57:52;5.00;;;3.00;;
38224;SDS011;24025;48.138;11.428;2022-08-25T12:01:01;7.53;;;3.30;;
38224;SDS011;24025;48.138;11.428;2022-08-25T12:16:59;6.05;;;4.45;;
38224;SDS011;24025;48.138;11.428;2022-08-25T12:19:47;7.18;;;4.82;;
38224;SDS011;24025;48.138;11.428;2022-08-25T12:25:00;17.00;;;5.32;;
38224;SDS011;24025;48.138;11.428;2022-08-25T12:36:30;5.35;;;4.00;;
38224;SDS011;24025;48.138;11.428;2022-08-25T12:39:22;8.13;;;4.20;;
38224;SDS011;24025;48.138;11.428;2022-08-25T12:42:04;12.55;;;4.22;;
38224;SDS011;24025;48.138;11.428;2022-08-25T12:44:53;10.77;;;3.63;;
38224;SDS011;24025;48.138;11.428;2022-08-25T12:47:55;14.57;;;4.75;;
38224;SDS011;24025;48.138;11.428;2022-08-25T12:51:01;19.00;;;4.15;;
38224;SDS011;24025;48.138;11.428;2022-08-25T12:53:39;7.00;;;3.92;;
38224;SDS011;24025;48.138;11.428;2022-08-25T13:16:14;12.20;;;4.13;;
38224;SDS011;24025;48.138;11.428;2022-08-25T13:18:47;4.70;;;4.20;;
38224;SDS011;24025;48.138;11.428;2022-08-25T13:21:18;8.40;;;4.30;;
38224;SDS011;24025;48.138;11.428;2022-08-25T13:23:54;8.85;;;4.45;;
38224;SDS011;24025;48.138;11.428;2022-08-25T13:26:27;10.93;;;4.85;;
38224;SDS011;24025;48.138;11.428;2022-08-25T13:29:01;7.22;;;5.25;;
38224;SDS011;24025;48.138;11.428;2022-08-25T13:31:48;12.98;;;5.13;;
38224;SDS011;24025;48.138;11.428;2022-08-25T13:34:27;12.43;;;5.30;;
38224;SDS011;24025;48.138;11.428;2022-08-25T13:37:09;12.60;;;4.68;;
38224;SDS011;24025;48.138;11.428;2022-08-25T13:42:40;14.63;;;5.35;;
38224;SDS011;24025;48.138;11.428;2022-08-25T13:45:14;8.32;;;4.28;;
38224;SDS011;24025;48.138;11.428;2022-08-25T13:47:56;10.13;;;4.82;;
38224;SDS011;24025;48.138;11.428;2022-08-25T13:58:34;7.03;;;4.63;;
38224;SDS011;24025;48.138;11.428;2022-08-25T14:03:42;12.30;;;5.45;;
38224;SDS011;24025;48.138;11.428;2022-08-25T14:09:02;13.20;;;5.13;;
38224;SDS011;24025;48.138;11.428;2022-08-25T14:17:08;10.18;;;4.65;;
38224;SDS011;24025;48.138;11.428;2022-08-25T14:19:43;16.13;;;4.28;;
38224;SDS011;24025;48.138;11.428;2022-08-25T14:22:15;10.15;;;4.65;;
38224;SDS011;24025;48.138;11.428;2022-08-25T14:24:46;11.23;;;4.27;;
38224;SDS011;24025;48.138;11.428;2022-08-25T14:27:16;8.43;;;4.90;;
38224;SDS011;24025;48.138;11.428;2022-08-25T14:29:48;9.60;;;4.72;;
38224;SDS011;24025;48.138;11.428;2022-08-25T14:32:18;10.07;;;4.65;;
38224;SDS011;24025;48.138;11.428;2022-08-25T14:34:49;9.93;;;5.47;;
38224;SDS011;24025;48.138;11.428;2022-08-25T14:37:19;10.48;;;4.65;;
38224;SDS011;24025;48.138;11.428;2022-08-25T14:42:21;14.32;;;5.03;;
38224;SDS011;24025;48.138;11.428;2022-08-25T14:44:51;8.52;;;4.90;;
38224;SDS011;24025;48.138;11.428;2022-08-25T14:47:22;7.57;;;4.60;;
38224;SDS011;24025;48.138;11.428;2022-08-25T14:49:52;10.23;;;4.35;;
38224;SDS011;24025;48.138;11.428;2022-08-25T14:52:24;9.60;;;4.50;;
38224;SDS011;24025;48.138;11.428;2022-08-25T14:54:57;10.23;;;5.05;;
38224;SDS011;24025;48.138;11.428;2022-08-25T14:57:28;10.52;;;4.80;;
38224;SDS011;24025;48.138;11.428;2022-08-25T14:59:58;9.05;;;5.90;;
38224;SDS011;24025;48.138;11.428;2022-08-25T15:02:29;7.30;;;6.07;;
38224;SDS011;24025;48.138;11.428;2022-08-25T15:05:01;9.70;;;5.68;;
38224;SDS011;24025;48.138;11.428;2022-08-25T15:07:35;10.55;;;5.88;;
38224;SDS011;24025;48.138;11.428;2022-08-25T15:10:24;7.82;;;5.00;;
38224;SDS011;24025;48.138;11.428;2022-08-25T15:12:54;11.40;;;6.07;;
38224;SDS011;24025;48.138;11.428;2022-08-25T15:15:24;10.38;;;5.53;;
38224;SDS011;24025;48.138;11.428;2022-08-25T15:17:57;15.45;;;6.57;;
38224;SDS011;24025;48.138;11.428;2022-08-25T15:20:28;12.02;;;6.05;;
38224;SDS011;24025;48.138;11.428;2022-08-25T15:22:59;10.95;;;5.35;;
38224;SDS011;24025;48.138;11.428;2022-08-25T15:25:30;9.30;;;5.32;;
38224;SDS011;24025;48.138;11.428;2022-08-25T15:28:06;18.05;;;6.05;;
38224;SDS011;24025;48.138;11.428;2022-08-25T15:30:37;11.90;;;5.85;;
38224;SDS011;24025;48.138;11.428;2022-08-25T15:33:08;10.32;;;6.50;;
38224;SDS011;24025;48.138;11.428;2022-08-25T15:35:38;8.30;;;5.55;;
38224;SDS011;24025;48.138;11.428;2022-08-25T15:38:09;10.07;;;5.90;;
38224;SDS011;24025;48.138;11.428;2022-08-25T15:40:39;12.00;;;5.35;;
38224;SDS011;24025;48.138;11.428;2022-08-25T15:43:10;10.32;;;5.20;;
38224;SDS011;24025;48.138;11.428;2022-08-25T15:45:40;17.88;;;6.43;;
38224;SDS011;24025;48.138;11.428;2022-08-25T15:48:11;18.02;;;6.35;;
38224;SDS011;24025;48.138;11.428;2022-08-25T15:50:41;14.45;;;5.43;;
38224;SDS011;24025;48.138;11.428;2022-08-25T15:53:12;15.77;;;5.88;;
38224;SDS011;24025;48.138;11.428;2022-08-25T15:55:43;14.02;;;5.43;;
38224;SDS011;24025;48.138;11.428;2022-08-25T15:58:14;20.10;;;6.03;;
38224;SDS011;24025;48.138;11.428;2022-08-25T16:00:45;17.98;;;5.80;;
38224;SDS011;24025;48.138;11.428;2022-08-25T16:03:16;14.35;;;6.07;;
38224;SDS011;24025;48.138;11.428;2022-08-25T16:05:46;19.77;;;5.97;;
38224;SDS011;24025;48.138;11.428;2022-08-25T16:08:17;11.23;;;5.60;;
38224;SDS011;24025;48.138;11.428;2022-08-25T16:10:47;11.43;;;5.88;;
38224;SDS011;24025;48.138;11.428;2022-08-25T16:13:18;11.05;;;5.78;;
38224;SDS011;24025;48.138;11.428;2022-08-25T16:15:48;20.05;;;5.82;;
38224;SDS011;24025;48.138;11.428;2022-08-25T16:18:19;17.73;;;5.85;;
38224;SDS011;24025;48.138;11.428;2022-08-25T16:20:50;15.65;;;5.40;;
38224;SDS011;24025;48.138;11.428;2022-08-25T16:23:20;15.02;;;6.30;;
38224;SDS011;24025;48.138;11.428;2022-08-25T16:25:51;14.20;;;4.97;;
38224;SDS011;24025;48.138;11.428;2022-08-25T16:28:21;11.45;;;5.57;;
38224;SDS011;24025;48.138;11.428;2022-08-25T16:30:52;27.00;;;6.25;;
38224;SDS011;24025;48.138;11.428;2022-08-25T16:33:23;9.60;;;4.88;;
38224;SDS011;24025;48.138;11.428;2022-08-25T16:36:02;14.18;;;5.55;;
38224;SDS011;24025;48.138;11.428;2022-08-25T16:38:35;12.25;;;6.28;;
38224;SDS011;24025;48.138;11.428;2022-08-25T16:44:07;16.20;;;5.82;;
38224;SDS011;24025;48.138;11.428;2022-08-25T16:49:09;22.30;;;6.07;;
38224;SDS011;24025;48.138;11.428;2022-08-25T16:51:41;18.65;;;5.68;;
38224;SDS011;24025;48.138;11.428;2022-08-25T16:54:11;16.83;;;5.45;;
38224;SDS011;24025;48.138;11.428;2022-08-25T16:57:00;10.18;;;4.80;;
38224;SDS011;24025;48.138;11.428;2022-08-25T16:59:31;9.43;;;5.37;;
38224;SDS011;24025;48.138;11.428;2022-08-25T17:02:01;13.50;;;5.97;;
38224;SDS011;24025;48.138;11.428;2022-08-25T17:04:32;18.90;;;5.40;;
38224;SDS011;24025;48.138;11.428;2022-08-25T17:07:02;12.80;;;5.40;;
38224;SDS011;24025;48.138;11.428;2022-08-25T17:09:33;16.98;;;5.53;;
38224;SDS011;24025;48.138;11.428;2022-08-25T17:12:03;17.00;;;5.23;;
38224;SDS011;24025;48.138;11.428;2022-08-25T17:14:34;13.98;;;5.53;;
38224;SDS011;24025;48.138;11.428;2022-08-25T17:17:04;14.60;;;5.33;;
38224;SDS011;24025;48.138;11.428;2022-08-25T17:19:36;13.98;;;5.10;;
38224;SDS011;24025;48.138;11.428;2022-08-25T17:22:06;13.60;;;4.73;;
38224;SDS011;24025;48.138;11.428;2022-08-25T17:24:37;17.57;;;5.47;;
38224;SDS011;24025;48.138;11.428;2022-08-25T17:27:07;19.90;;;5.73;;
38224;SDS011;24025;48.138;11.428;2022-08-25T17:29:38;20.85;;;5.38;;
38224;SDS011;24025;48.138;11.428;2022-08-25T17:32:09;18.10;;;4.75;;
38224;SDS011;24025;48.138;11.428;2022-08-25T17:34:40;10.80;;;5.30;;
38224;SDS011;24025;48.138;11.428;2022-08-25T17:37:10;11.33;;;5.80;;
38224;SDS011;24025;48.138;11.428;2022-08-25T17:39:40;18.47;;;6.80;;
38224;SDS011;24025;48.138;11.428;2022-08-25T17:42:11;17.83;;;4.97;;
38224;SDS011;24025;48.138;11.428;2022-08-25T17:44:41;13.83;;;5.13;;
38224;SDS011;24025;48.138;11.428;2022-08-25T17:47:12;24.05;;;5.60;;
38224;SDS011;24025;48.138;11.428;2022-08-25T17:49:43;22.60;;;5.40;;
38224;SDS011;24025;48.138;11.428;2022-08-25T17:52:13;22.37;;;5.20;;
38224;SDS011;24025;48.138;11.428;2022-08-25T17:54:46;27.35;;;5.97;;
38224;SDS011;24025;48.138;11.428;2022-08-25T17:57:16;16.43;;;5.40;;
38224;SDS011;24025;48.138;11.428;2022-08-25T17:59:47;13.73;;;4.93;;
38224;SDS011;24025;48.138;11.428;2022-08-25T18:02:17;18.13;;;6.03;;
38224;SDS011;24025;48.138;11.428;2022-08-25T18:04:48;17.37;;;5.17;;